createdAt,value
2019-04-14T00:05:14.981Z,16.05
2019-04-14T00:07:47.157Z,15.98
2019-04-14T00:10:18.229Z,16.10
2019-04-14T00:12:49.215Z,15.75
2019-04-14T00:15:29.342Z,15.10
2019-04-14T00:17:50.857Z,15.32
2019-04-14T00:20:20.777Z,15.93
2019-04-14T00:22:51.218Z,15.13
2019-04-14T00:25:21.629Z,15.10
2019-04-14T00:27:52.175Z,16.05
2019-04-14T00:30:23.022Z,15.28
2019-04-14T00:32:58.018Z,16.07
2019-04-14T00:35:36.447Z,16.77
2019-04-14T00:38:21.656Z,16.15
2019-04-14T00:41:13.601Z,16.65
2019-04-14T00:43:46.030Z,17.95
2019-04-14T00:46:35.270Z,18.92
2019-04-14T00:49:05.536Z,18.50
2019-04-14T00:51:38.279Z,19.45
2019-04-14T00:54:06.946Z,18.37
2019-04-14T00:56:36.933Z,18.23
2019-04-14T00:59:07.110Z,17.42
2019-04-14T01:01:37.239Z,16.60
2019-04-14T01:04:07.691Z,16.62
2019-04-14T01:06:38.268Z,14.70
2019-04-14T01:09:10.764Z,14.20
2019-04-14T01:11:40.582Z,12.65
2019-04-14T01:14:10.401Z,13.90
2019-04-14T01:16:40.834Z,14.23
2019-04-14T01:19:11.245Z,14.50
2019-04-14T01:21:41.356Z,15.18
2019-04-14T01:24:12.063Z,12.70
2019-04-14T01:26:42.103Z,14.45
2019-04-14T01:29:12.304Z,14.47
2019-04-14T01:31:42.491Z,14.55
2019-04-14T01:34:12.965Z,14.87
2019-04-14T01:36:43.195Z,14.23
2019-04-14T01:39:15.376Z,13.38
2019-04-14T01:41:45.656Z,13.20
2019-04-14T01:44:15.668Z,13.58
2019-04-14T01:46:45.660Z,13.10
2019-04-14T01:49:15.758Z,13.85
2019-04-14T01:51:48.370Z,12.28
2019-04-14T01:54:19.949Z,12.23
2019-04-14T01:56:58.114Z,14.23
2019-04-14T01:59:28.446Z,13.72
2019-04-14T02:02:00.765Z,12.98
2019-04-14T02:04:31.275Z,12.07
2019-04-14T02:07:02.283Z,12.43
2019-04-14T02:09:32.100Z,12.85
2019-04-14T02:12:01.926Z,12.80
2019-04-14T02:14:32.817Z,11.70
2019-04-14T02:17:04.330Z,12.70
2019-04-14T02:19:34.943Z,13.98
2019-04-14T02:22:05.147Z,12.20
2019-04-14T02:24:35.256Z,11.65
2019-04-14T02:27:05.608Z,12.35
2019-04-14T02:29:36.218Z,12.55
2019-04-14T02:35:03.067Z,10.98
2019-04-14T02:40:39.316Z,12.28
2019-04-14T02:42:54.378Z,12.07
2019-04-14T02:45:40.783Z,12.18
2019-04-14T02:48:18.358Z,11.93
2019-04-14T02:50:30.287Z,12.28
2019-04-14T02:53:07.392Z,11.90
2019-04-14T02:58:10.289Z,11.93
2019-04-14T03:00:41.815Z,11.60
2019-04-14T03:03:16.052Z,12.47
2019-04-14T03:05:44.756Z,12.18
2019-04-14T03:08:17.522Z,13.03
2019-04-14T03:15:47.896Z,13.03
2019-04-14T03:18:37.851Z,11.85
2019-04-14T03:21:30.793Z,13.20
2019-04-14T03:23:53.333Z,13.18
2019-04-14T03:26:35.213Z,15.25
2019-04-14T03:29:26.759Z,11.88
2019-04-14T03:37:18.852Z,12.58
2019-04-14T03:39:46.643Z,12.50
2019-04-14T03:42:12.790Z,13.10
2019-04-14T03:44:42.034Z,14.00
2019-04-14T03:49:52.887Z,13.03
2019-04-14T03:52:31.636Z,14.75
2019-04-14T03:54:36.085Z,15.45
2019-04-14T03:56:49.654Z,15.45
2019-04-14T03:59:19.854Z,15.10
2019-04-14T04:01:50.066Z,14.78
2019-04-14T04:04:20.594Z,14.60
2019-04-14T04:06:50.992Z,15.98
2019-04-14T04:09:23.523Z,13.78
2019-04-14T04:11:54.133Z,15.00
2019-04-14T04:14:24.597Z,15.15
2019-04-14T04:19:53.415Z,15.45
2019-04-14T04:22:31.107Z,14.65
2019-04-14T04:25:02.960Z,14.33
2019-04-14T04:30:22.970Z,15.55
2019-04-14T04:33:11.127Z,14.07
2019-04-14T04:35:48.581Z,13.08
2019-04-14T04:38:20.174Z,13.30
2019-04-14T04:40:50.757Z,13.28
2019-04-14T04:43:21.142Z,13.53
2019-04-14T04:45:51.671Z,14.28
2019-04-14T04:48:21.836Z,14.58
2019-04-14T04:50:51.973Z,13.55
2019-04-14T04:53:22.331Z,13.10
2019-04-14T04:55:52.492Z,13.62
2019-04-14T04:58:22.618Z,13.68
2019-04-14T05:00:54.314Z,14.55
2019-04-14T05:03:25.336Z,14.58
2019-04-14T05:09:29.499Z,16.00
2019-04-14T05:12:13.420Z,14.40
2019-04-14T05:14:45.612Z,13.93
2019-04-14T05:17:17.129Z,14.60
2019-04-14T05:19:47.557Z,15.32
2019-04-14T05:22:19.190Z,14.23
2019-04-14T05:24:48.889Z,14.98
2019-04-14T05:27:18.950Z,15.60
2019-04-14T05:29:49.391Z,15.58
2019-04-14T05:32:19.466Z,15.48
2019-04-14T05:34:50.166Z,15.48
2019-04-14T05:37:20.390Z,15.10
2019-04-14T05:39:50.521Z,14.25
2019-04-14T05:42:24.359Z,15.40
2019-04-14T05:44:51.920Z,14.40
2019-04-14T05:47:21.862Z,14.53
2019-04-14T05:49:54.660Z,14.00
2019-04-14T05:52:23.485Z,13.22
2019-04-14T05:54:53.645Z,13.30
2019-04-14T05:57:24.187Z,12.88
2019-04-14T05:59:54.801Z,12.80
2019-04-14T06:02:28.945Z,12.93
2019-04-14T06:04:59.321Z,12.58
2019-04-14T06:07:29.281Z,12.78
2019-04-14T06:09:59.113Z,13.95
2019-04-14T06:12:28.938Z,12.75
2019-04-14T06:14:58.790Z,13.25
2019-04-14T06:17:29.025Z,13.83
2019-04-14T06:19:58.840Z,14.35
2019-04-14T06:22:28.738Z,14.45
2019-04-14T06:24:58.657Z,14.85
2019-04-14T06:27:28.486Z,12.88
2019-04-14T06:30:00.305Z,13.95
2019-04-14T06:32:41.060Z,12.85
2019-04-14T06:35:21.720Z,16.35
2019-04-14T06:37:53.258Z,14.40
2019-04-14T06:40:24.754Z,14.28
2019-04-14T06:42:54.573Z,13.15
2019-04-14T06:45:24.409Z,14.58
2019-04-14T06:47:54.235Z,14.15
2019-04-14T06:50:24.404Z,12.70
2019-04-14T06:52:54.289Z,14.58
2019-04-14T06:55:24.475Z,15.03
2019-04-14T06:57:54.298Z,13.15
2019-04-14T07:01:00.213Z,14.45
2019-04-14T07:03:30.033Z,12.37
2019-04-14T07:06:00.204Z,14.80
2019-04-14T07:08:30.082Z,16.02
2019-04-14T07:10:59.910Z,17.25
2019-04-14T07:13:29.818Z,17.00
2019-04-14T07:15:59.622Z,18.00
2019-04-14T07:18:29.450Z,17.37
2019-04-14T07:20:59.631Z,18.32
2019-04-14T07:23:29.458Z,18.25
2019-04-14T07:25:59.277Z,17.90
2019-04-14T07:28:29.386Z,17.17
2019-04-14T07:31:03.687Z,17.45
2019-04-14T07:33:51.326Z,17.57
2019-04-14T07:36:32.799Z,16.48
2019-04-14T07:39:20.431Z,15.72
2019-04-14T07:42:08.376Z,15.63
2019-04-14T07:44:57.218Z,15.38
2019-04-14T07:47:37.803Z,15.28
2019-04-14T07:50:15.585Z,15.55
2019-04-14T07:53:04.375Z,14.75
2019-04-14T07:55:48.303Z,14.95
2019-04-14T07:58:35.981Z,16.37
2019-04-14T08:04:14.878Z,15.45
2019-04-14T08:06:46.729Z,14.20
2019-04-14T08:09:16.553Z,13.55
2019-04-14T08:11:46.449Z,14.18
2019-04-14T08:14:17.907Z,14.68
2019-04-14T08:16:47.806Z,14.00
2019-04-14T08:19:17.633Z,13.00
2019-04-14T08:21:48.529Z,14.75
2019-04-14T08:24:18.646Z,15.00
2019-04-14T08:26:48.776Z,13.95
2019-04-14T08:29:18.588Z,14.90
2019-04-14T08:31:48.485Z,12.85
2019-04-14T08:34:18.375Z,12.90
2019-04-14T08:36:50.257Z,12.40
2019-04-14T08:39:20.086Z,12.10
2019-04-14T08:41:51.550Z,11.88
2019-04-14T08:44:29.110Z,12.07
2019-04-14T08:47:09.586Z,11.83
2019-04-14T08:49:41.067Z,11.73
2019-04-14T08:52:28.731Z,11.65
2019-04-14T08:55:19.772Z,10.38
2019-04-14T08:58:04.311Z,10.98
2019-04-14T09:00:42.298Z,10.23
2019-04-14T09:03:29.948Z,12.33
2019-04-14T09:06:07.291Z,9.88
2019-04-14T09:08:47.595Z,9.90
2019-04-14T09:11:19.048Z,10.40
2019-04-14T09:13:48.890Z,10.55
2019-04-14T09:16:18.714Z,11.10
2019-04-14T09:18:48.550Z,10.53
2019-04-14T09:21:18.677Z,10.55
2019-04-14T09:23:48.538Z,10.25
2019-04-14T09:26:18.525Z,9.75
2019-04-14T09:28:48.731Z,11.48
2019-04-14T09:31:18.627Z,10.58
2019-04-14T09:33:48.770Z,11.70
2019-04-14T09:36:19.594Z,10.10
2019-04-14T09:38:49.422Z,11.30
2019-04-14T09:41:19.251Z,11.10
2019-04-14T09:43:49.070Z,10.88
2019-04-14T09:46:18.894Z,9.88
2019-04-14T09:48:48.789Z,11.08
2019-04-14T09:51:18.604Z,10.08
2019-04-14T09:53:48.492Z,12.25
2019-04-14T09:56:18.327Z,10.93
2019-04-14T09:58:48.154Z,11.93
2019-04-14T10:01:18.116Z,11.18
2019-04-14T10:03:48.005Z,12.82
2019-04-14T10:06:17.871Z,11.70
2019-04-14T10:08:47.768Z,12.75
2019-04-14T10:11:17.589Z,10.93
2019-04-14T10:13:47.468Z,10.72
2019-04-14T10:16:17.766Z,10.85
2019-04-14T10:18:48.653Z,11.28
2019-04-14T10:21:18.470Z,10.95
2019-04-14T10:23:48.289Z,11.68
2019-04-14T10:26:18.186Z,11.85
2019-04-14T10:28:50.634Z,10.93
2019-04-14T10:31:19.768Z,11.20
2019-04-14T10:33:49.594Z,9.80
2019-04-14T10:36:19.406Z,9.93
2019-04-14T10:38:49.233Z,9.35
2019-04-14T10:41:19.110Z,8.53
2019-04-14T10:43:49.105Z,8.75
2019-04-14T10:46:19.277Z,9.33
2019-04-14T10:48:49.102Z,10.25
2019-04-14T10:51:29.432Z,9.45
2019-04-14T10:53:50.434Z,8.95
2019-04-14T10:56:20.253Z,9.25
2019-04-14T10:58:50.147Z,8.93
2019-04-14T11:01:20.030Z,9.38
2019-04-14T11:03:50.384Z,9.15
2019-04-14T11:06:44.282Z,8.78
2019-04-14T11:09:16.806Z,8.83
2019-04-14T11:11:46.622Z,8.65
2019-04-14T11:14:16.794Z,8.55
2019-04-14T11:16:46.612Z,8.55
2019-04-14T11:19:16.433Z,7.35
2019-04-14T11:21:46.313Z,7.67
2019-04-14T11:24:16.129Z,7.80
2019-04-14T11:26:45.941Z,7.47
2019-04-14T11:29:15.754Z,7.47
2019-04-14T11:31:56.025Z,6.53
2019-04-14T11:34:39.875Z,6.50
2019-04-14T11:37:14.094Z,6.83
2019-04-14T11:39:45.583Z,6.67
2019-04-14T11:42:15.389Z,5.90
2019-04-14T11:44:45.381Z,5.58
2019-04-14T11:47:16.424Z,5.78
2019-04-14T11:49:46.336Z,6.15
2019-04-14T11:52:16.493Z,5.35
2019-04-14T11:54:46.298Z,4.97
2019-04-14T11:57:16.174Z,5.65
2019-04-14T11:59:56.712Z,5.50
2019-04-14T12:02:39.949Z,4.95
2019-04-14T12:05:20.434Z,5.78
2019-04-14T12:07:58.134Z,4.80
2019-04-14T12:10:28.313Z,5.67
2019-04-14T12:12:58.130Z,5.83
2019-04-14T12:15:28.374Z,5.45
2019-04-14T12:17:58.195Z,5.28
2019-04-14T12:20:28.008Z,4.75
2019-04-14T12:22:57.821Z,5.03
2019-04-14T12:25:27.939Z,4.67
2019-04-14T12:27:57.985Z,5.05
2019-04-14T12:30:29.025Z,3.87
2019-04-14T12:32:58.936Z,4.15
2019-04-14T12:35:28.747Z,5.60
2019-04-14T12:37:58.561Z,4.70
2019-04-14T12:40:28.365Z,5.53
2019-04-14T12:43:16.358Z,4.83
2019-04-14T12:45:51.494Z,5.75
2019-04-14T12:48:26.688Z,5.58
2019-04-14T12:53:52.701Z,6.17
2019-04-14T12:56:25.582Z,5.75
2019-04-14T13:01:56.962Z,5.83
2019-04-14T13:04:26.783Z,6.67
2019-04-14T13:06:56.591Z,6.58
2019-04-14T13:09:28.338Z,7.25
2019-04-14T13:11:58.216Z,6.78
2019-04-14T13:14:28.020Z,5.62
2019-04-14T13:16:57.907Z,5.97
2019-04-14T13:19:27.717Z,6.05
2019-04-14T13:21:57.602Z,5.70
2019-04-14T13:24:27.407Z,5.90
2019-04-14T13:26:57.213Z,5.85
2019-04-14T13:29:27.057Z,6.05
2019-04-14T13:31:56.936Z,6.03
2019-04-14T13:34:27.072Z,5.78
2019-04-14T13:36:56.894Z,5.28
2019-04-14T13:39:26.708Z,4.75
2019-04-14T13:41:56.585Z,4.85
2019-04-14T13:44:26.377Z,4.37
2019-04-14T13:46:56.199Z,4.58
2019-04-14T13:49:26.005Z,4.25
2019-04-14T13:51:56.887Z,4.42
2019-04-14T13:54:26.698Z,4.10
2019-04-14T13:56:56.506Z,3.77
2019-04-14T13:59:26.951Z,4.25
2019-04-14T14:01:58.666Z,4.08
2019-04-14T14:04:28.554Z,5.00
2019-04-14T14:06:58.843Z,5.00
2019-04-14T14:09:28.730Z,4.45
2019-04-14T14:12:09.322Z,4.28
2019-04-14T14:14:50.330Z,4.53
2019-04-14T14:17:21.789Z,4.15
2019-04-14T14:19:55.923Z,3.75
2019-04-14T14:22:30.486Z,4.10
2019-04-14T14:25:01.932Z,3.27
2019-04-14T14:27:31.845Z,4.10
2019-04-14T14:30:01.657Z,2.92
2019-04-14T14:32:33.177Z,3.12
2019-04-14T14:35:02.990Z,2.58
2019-04-14T14:37:32.801Z,2.65
2019-04-14T14:40:02.681Z,2.70
2019-04-14T14:42:32.477Z,2.55
2019-04-14T14:45:03.925Z,2.42
2019-04-14T14:47:35.005Z,2.85
2019-04-14T14:50:17.051Z,2.55
2019-04-14T14:52:46.861Z,2.85
2019-04-14T14:55:16.674Z,2.45
2019-04-14T14:57:46.486Z,2.75
2019-04-14T15:00:29.935Z,2.98
2019-04-14T15:02:59.847Z,2.83
2019-04-14T15:05:29.624Z,2.52
2019-04-14T15:07:59.434Z,2.50
2019-04-14T15:10:30.806Z,3.05
2019-04-14T15:13:00.614Z,2.47
2019-04-14T15:15:30.425Z,2.42
2019-04-14T15:18:00.241Z,2.52
2019-04-14T15:20:30.051Z,2.10
2019-04-14T15:22:59.861Z,2.08
2019-04-14T15:25:29.677Z,1.85
2019-04-14T15:27:59.549Z,2.15
2019-04-14T15:30:30.513Z,2.33
2019-04-14T15:33:00.318Z,2.58
2019-04-14T15:35:30.137Z,2.17
2019-04-14T15:37:59.950Z,2.33
2019-04-14T15:40:29.771Z,2.77
2019-04-14T15:42:59.590Z,2.77
2019-04-14T15:45:29.427Z,2.08
2019-04-14T15:47:59.224Z,2.02
2019-04-14T15:50:29.122Z,1.90
2019-04-14T15:52:58.926Z,1.90
2019-04-14T15:55:28.730Z,1.25
2019-04-14T16:00:40.373Z,1.82
2019-04-14T16:03:20.917Z,1.87
2019-04-14T16:06:10.394Z,1.82
2019-04-14T16:08:42.172Z,1.70
2019-04-14T16:11:31.690Z,1.80
2019-04-14T16:14:03.202Z,1.50
2019-04-14T16:16:50.741Z,1.98
2019-04-14T16:19:22.258Z,1.80
2019-04-14T16:21:52.067Z,1.57
2019-04-14T16:24:21.880Z,1.40
2019-04-14T16:26:59.407Z,1.27
2019-04-14T16:29:30.920Z,1.20
2019-04-14T16:32:11.516Z,1.02
2019-04-14T16:34:43.021Z,1.10
2019-04-14T16:37:12.893Z,1.32
2019-04-14T16:39:42.778Z,1.67
2019-04-14T16:42:12.653Z,1.62
2019-04-14T16:44:42.530Z,1.12
2019-04-14T16:47:12.342Z,1.37
2019-04-14T16:49:42.227Z,1.77
2019-04-14T16:52:13.739Z,1.37
2019-04-14T16:54:48.006Z,1.47
2019-04-14T16:57:22.376Z,1.82
2019-04-14T17:02:21.354Z,1.87
2019-04-14T17:04:52.340Z,1.85
2019-04-14T17:07:23.318Z,1.67
2019-04-14T17:09:53.143Z,1.92
2019-04-14T17:12:23.013Z,1.92
2019-04-14T17:14:54.474Z,2.08
2019-04-14T17:17:26.260Z,1.52
2019-04-14T17:20:03.935Z,2.15
2019-04-14T17:22:39.711Z,1.80
2019-04-14T17:27:45.264Z,1.90
2019-04-14T17:30:28.777Z,1.98
2019-04-14T17:33:17.158Z,2.00
2019-04-14T17:36:05.010Z,1.87
2019-04-14T17:38:42.345Z,2.00
2019-04-14T17:41:19.778Z,2.08
2019-04-14T17:43:51.298Z,2.15
2019-04-14T17:46:31.804Z,2.37
2019-04-14T17:49:07.075Z,2.10
2019-04-14T17:51:38.597Z,2.83
2019-04-14T17:54:28.349Z,3.30
2019-04-14T17:57:06.089Z,2.37
2019-04-14T17:59:44.550Z,2.62
2019-04-14T18:02:21.872Z,2.98
2019-04-14T18:05:02.568Z,3.80
2019-04-14T18:07:37.357Z,4.00
2019-04-14T18:10:09.106Z,3.40
2019-04-14T18:12:49.772Z,3.58
2019-04-14T18:15:21.232Z,3.55
2019-04-14T18:17:55.213Z,3.72
2019-04-14T18:20:29.353Z,4.28
2019-04-14T18:22:59.170Z,6.78
2019-04-14T18:25:29.080Z,10.28
2019-04-14T18:28:12.115Z,10.75
2019-04-14T18:30:43.600Z,12.63
2019-04-14T18:33:31.318Z,14.15
2019-04-14T18:36:14.323Z,13.68
2019-04-14T18:39:03.673Z,14.45
2019-04-14T18:41:52.397Z,12.55
2019-04-14T18:44:40.171Z,14.83
2019-04-14T18:47:11.714Z,15.10
2019-04-14T18:49:45.841Z,14.13
2019-04-14T18:52:29.378Z,13.72
2019-04-14T18:55:06.771Z,13.98
2019-04-14T18:57:38.230Z,13.28
2019-04-14T19:00:09.699Z,14.53
2019-04-14T19:02:40.703Z,14.43
2019-04-14T19:05:10.526Z,13.78
2019-04-14T19:07:40.361Z,13.80
2019-04-14T19:10:10.178Z,13.43
2019-04-14T19:12:41.994Z,13.68
2019-04-14T19:15:13.454Z,13.75
2019-04-14T19:17:56.846Z,13.85
2019-04-14T19:20:26.673Z,13.30
2019-04-14T19:22:56.488Z,14.28
2019-04-14T19:25:26.323Z,13.80
2019-04-14T19:27:56.222Z,12.98
2019-04-14T19:30:26.355Z,13.58
2019-04-14T19:32:56.246Z,13.10
2019-04-14T19:35:26.963Z,13.30
2019-04-14T19:37:57.347Z,13.38
2019-04-14T19:40:27.692Z,13.62
2019-04-14T19:42:57.514Z,12.63
2019-04-14T19:45:27.365Z,12.95
2019-04-14T19:47:57.258Z,13.22
2019-04-14T19:50:27.087Z,12.47
2019-04-14T19:52:56.906Z,12.68
2019-04-14T19:55:27.138Z,13.45
2019-04-14T19:57:57.034Z,12.25
2019-04-14T20:00:26.859Z,12.80
2019-04-14T20:02:57.093Z,13.18
2019-04-14T20:05:26.986Z,12.03
2019-04-14T20:07:56.809Z,13.32
2019-04-14T20:10:26.632Z,11.53
2019-04-14T20:12:56.517Z,12.33
2019-04-14T20:15:29.044Z,13.38
2019-04-14T20:20:45.631Z,12.90
2019-04-14T20:23:17.181Z,13.28
2019-04-14T20:26:05.034Z,13.32
2019-04-14T20:28:36.580Z,13.28
2019-04-14T20:31:08.111Z,11.93
2019-04-14T20:33:38.195Z,12.53
2019-04-14T20:36:08.023Z,11.90
2019-04-14T20:38:50.473Z,12.18
2019-04-14T20:41:20.375Z,11.22
2019-04-14T20:43:50.220Z,12.15
2019-04-14T20:46:20.043Z,11.03
2019-04-14T20:48:49.870Z,11.18
2019-04-14T20:51:20.156Z,10.35
2019-04-14T20:53:50.207Z,10.45
2019-04-14T20:56:20.057Z,10.28
2019-04-14T20:58:49.960Z,10.80
2019-04-14T21:01:21.123Z,9.75
2019-04-14T21:03:52.584Z,10.75
2019-04-14T21:06:54.333Z,9.50
2019-04-14T21:09:31.562Z,8.88
2019-04-14T21:12:05.713Z,9.45
2019-04-14T21:14:46.473Z,9.45
2019-04-14T21:20:10.473Z,7.87
2019-04-14T21:22:47.953Z,8.23
2019-04-14T21:25:19.413Z,8.03
2019-04-14T21:27:57.162Z,7.08
2019-04-14T21:30:31.410Z,5.90
2019-04-14T21:35:51.862Z,6.80
2019-04-14T21:38:39.327Z,7.33
2019-04-14T21:41:13.554Z,7.90
2019-04-14T21:43:43.366Z,7.37
2019-04-14T21:46:13.187Z,7.58
2019-04-14T21:48:43.010Z,8.15
2019-04-14T21:51:12.827Z,7.67
2019-04-14T21:53:43.119Z,7.17
2019-04-14T21:56:13.884Z,8.50
2019-04-14T21:59:02.086Z,7.70
2019-04-14T22:01:53.013Z,6.97
2019-04-14T22:04:41.014Z,7.10
2019-04-14T22:07:18.347Z,6.62
2019-04-14T22:09:49.263Z,5.40
2019-04-14T22:12:19.079Z,5.05
2019-04-14T22:14:49.962Z,5.58
2019-04-14T22:17:20.129Z,5.72
2019-04-14T22:19:49.946Z,6.03
2019-04-14T22:22:19.748Z,7.58
2019-04-14T22:24:49.557Z,7.35
2019-04-14T22:27:19.684Z,7.15
2019-04-14T22:29:49.506Z,6.00
2019-04-14T22:32:19.377Z,5.53
2019-04-14T22:34:49.530Z,6.28
2019-04-14T22:37:19.653Z,6.30
2019-04-14T22:39:49.530Z,6.53
2019-04-14T22:42:20.513Z,8.03
2019-04-14T22:44:50.732Z,8.08
2019-04-14T22:47:20.546Z,7.35
2019-04-14T22:49:50.358Z,7.10
2019-04-14T22:52:20.472Z,7.05
2019-04-14T22:54:50.355Z,7.25
2019-04-14T22:57:20.176Z,7.50
2019-04-14T22:59:50.056Z,6.58
2019-04-14T23:02:25.146Z,6.10
2019-04-14T23:07:58.911Z,6.50
2019-04-14T23:10:42.176Z,5.95
2019-04-14T23:13:19.519Z,6.45
2019-04-14T23:15:57.041Z,6.30
2019-04-14T23:18:29.515Z,6.25
2019-04-14T23:21:01.354Z,5.67
2019-04-14T23:23:32.853Z,4.92
2019-04-14T23:26:02.715Z,4.10
2019-04-14T23:28:32.566Z,3.50
2019-04-14T23:31:02.418Z,3.85
2019-04-14T23:33:32.313Z,3.67
2019-04-14T23:36:02.293Z,4.62
2019-04-14T23:38:32.130Z,4.33
2019-04-14T23:41:01.960Z,3.60
2019-04-14T23:43:31.850Z,3.72
2019-04-14T23:46:01.725Z,3.50
2019-04-14T23:48:31.611Z,3.50
2019-04-14T23:51:01.486Z,3.55
2019-04-14T23:53:31.382Z,3.70
2019-04-14T23:56:01.257Z,3.35
2019-04-14T23:58:31.070Z,4.05
